sensor_id;sensor_type;location;lat;lon;timestamp;temperature;humidity
16823;DHT22;8528;49.976;11.858;2023-08-12T00:01:30;14.30;99.90
16823;DHT22;8528;49.976;11.858;2023-08-12T00:03:57;14.30;99.90
16823;DHT22;8528;49.976;11.858;2023-08-12T00:06:25;14.30;99.90
16823;DHT22;8528;49.976;11.858;2023-08-12T00:08:52;14.30;99.90
16823;DHT22;8528;49.976;11.858;2023-08-12T00:11:19;14.30;99.90
16823;DHT22;8528;49.976;11.858;2023-08-12T00:13:46;14.20;99.90
16823;DHT22;8528;49.976;11.858;2023-08-12T00:16:13;14.20;99.90
16823;DHT22;8528;49.976;11.858;2023-08-12T00:18:40;14.20;99.90
16823;DHT22;8528;49.976;11.858;2023-08-12T00:21:08;14.10;99.90
16823;DHT22;8528;49.976;11.858;2023-08-12T00:23:39;14.10;99.90
16823;DHT22;8528;49.976;11.858;2023-08-12T00:26:08;14.10;99.90
16823;DHT22;8528;49.976;11.858;2023-08-12T00:28:35;14.10;99.90
16823;DHT22;8528;49.976;11.858;2023-08-12T00:31:02;14.10;99.90
16823;DHT22;8528;49.976;11.858;2023-08-12T00:33:30;14.00;99.90
16823;DHT22;8528;49.976;11.858;2023-08-12T00:35:56;14.00;99.90
16823;DHT22;8528;49.976;11.858;2023-08-12T00:38:24;14.00;99.90
16823;DHT22;8528;49.976;11.858;2023-08-12T00:40:51;13.90;99.90
16823;DHT22;8528;49.976;11.858;2023-08-12T00:43:18;13.90;99.90
16823;DHT22;8528;49.976;11.858;2023-08-12T00:45:45;13.90;99.90
16823;DHT22;8528;49.976;11.858;2023-08-12T00:48:12;13.80;99.90
16823;DHT22;8528;49.976;11.858;2023-08-12T00:50:42;13.80;99.90
16823;DHT22;8528;49.976;11.858;2023-08-12T00:53:10;13.80;99.90
16823;DHT22;8528;49.976;11.858;2023-08-12T00:55:37;13.70;99.90
16823;DHT22;8528;49.976;11.858;2023-08-12T00:58:05;13.80;99.90
16823;DHT22;8528;49.976;11.858;2023-08-12T01:00:32;13.70;99.90
16823;DHT22;8528;49.976;11.858;2023-08-12T01:03:00;13.70;99.90
16823;DHT22;8528;49.976;11.858;2023-08-12T01:05:29;13.70;99.90
16823;DHT22;8528;49.976;11.858;2023-08-12T01:07:56;13.70;99.90
16823;DHT22;8528;49.976;11.858;2023-08-12T01:10:25;13.70;99.90
16823;DHT22;8528;49.976;11.858;2023-08-12T01:13:02;13.60;99.90
16823;DHT22;8528;49.976;11.858;2023-08-12T01:15:32;13.60;99.90
16823;DHT22;8528;49.976;11.858;2023-08-12T01:18:00;13.60;99.90
16823;DHT22;8528;49.976;11.858;2023-08-12T01:20:28;13.60;99.90
16823;DHT22;8528;49.976;11.858;2023-08-12T01:23:14;13.50;99.90
16823;DHT22;8528;49.976;11.858;2023-08-12T01:25:42;13.60;99.90
16823;DHT22;8528;49.976;11.858;2023-08-12T01:28:09;13.60;99.90
16823;DHT22;8528;49.976;11.858;2023-08-12T01:30:47;13.50;99.90
16823;DHT22;8528;49.976;11.858;2023-08-12T01:36:07;13.50;99.90
16823;DHT22;8528;49.976;11.858;2023-08-12T01:38:36;13.40;99.90
16823;DHT22;8528;49.976;11.858;2023-08-12T01:41:07;13.40;99.90
16823;DHT22;8528;49.976;11.858;2023-08-12T01:43:36;13.40;99.90
16823;DHT22;8528;49.976;11.858;2023-08-12T01:46:03;13.40;99.90
16823;DHT22;8528;49.976;11.858;2023-08-12T01:48:31;13.30;99.90
16823;DHT22;8528;49.976;11.858;2023-08-12T01:50:58;13.30;99.90
16823;DHT22;8528;49.976;11.858;2023-08-12T01:53:24;13.30;99.90
16823;DHT22;8528;49.976;11.858;2023-08-12T01:55:52;13.30;99.90
16823;DHT22;8528;49.976;11.858;2023-08-12T01:58:19;13.20;99.90
16823;DHT22;8528;49.976;11.858;2023-08-12T02:00:46;13.20;99.90
16823;DHT22;8528;49.976;11.858;2023-08-12T02:03:13;13.20;99.90
16823;DHT22;8528;49.976;11.858;2023-08-12T02:05:40;13.20;99.90
16823;DHT22;8528;49.976;11.858;2023-08-12T02:08:07;13.20;99.90
16823;DHT22;8528;49.976;11.858;2023-08-12T02:10:34;13.20;99.90
16823;DHT22;8528;49.976;11.858;2023-08-12T02:13:02;13.20;99.90
16823;DHT22;8528;49.976;11.858;2023-08-12T02:15:29;13.20;99.90
16823;DHT22;8528;49.976;11.858;2023-08-12T02:17:57;13.10;99.90
16823;DHT22;8528;49.976;11.858;2023-08-12T02:20:23;13.10;99.90
16823;DHT22;8528;49.976;11.858;2023-08-12T02:22:51;13.10;99.90
16823;DHT22;8528;49.976;11.858;2023-08-12T02:25:21;13.10;99.90
16823;DHT22;8528;49.976;11.858;2023-08-12T02:27:47;13.00;99.90
16823;DHT22;8528;49.976;11.858;2023-08-12T02:30:14;13.00;99.90
16823;DHT22;8528;49.976;11.858;2023-08-12T02:32:42;13.00;99.90
16823;DHT22;8528;49.976;11.858;2023-08-12T02:35:10;13.00;99.90
16823;DHT22;8528;49.976;11.858;2023-08-12T02:37:37;13.00;99.90
16823;DHT22;8528;49.976;11.858;2023-08-12T02:40:04;12.90;99.90
16823;DHT22;8528;49.976;11.858;2023-08-12T02:42:32;12.90;99.90
16823;DHT22;8528;49.976;11.858;2023-08-12T02:44:59;12.90;99.90
16823;DHT22;8528;49.976;11.858;2023-08-12T02:47:27;12.90;99.90
16823;DHT22;8528;49.976;11.858;2023-08-12T02:49:54;12.90;99.90
16823;DHT22;8528;49.976;11.858;2023-08-12T02:52:21;12.80;99.90
16823;DHT22;8528;49.976;11.858;2023-08-12T02:54:49;12.80;99.90
16823;DHT22;8528;49.976;11.858;2023-08-12T02:57:15;12.80;99.90
16823;DHT22;8528;49.976;11.858;2023-08-12T02:59:43;12.80;99.90
16823;DHT22;8528;49.976;11.858;2023-08-12T03:02:10;12.80;99.90
16823;DHT22;8528;49.976;11.858;2023-08-12T03:04:36;12.80;99.90
16823;DHT22;8528;49.976;11.858;2023-08-12T03:07:04;12.70;99.90
16823;DHT22;8528;49.976;11.858;2023-08-12T03:09:31;12.70;99.90
16823;DHT22;8528;49.976;11.858;2023-08-12T03:11:57;12.70;99.90
16823;DHT22;8528;49.976;11.858;2023-08-12T03:14:48;12.70;99.90
16823;DHT22;8528;49.976;11.858;2023-08-12T03:17:15;12.60;99.90
16823;DHT22;8528;49.976;11.858;2023-08-12T03:19:43;12.60;99.90
16823;DHT22;8528;49.976;11.858;2023-08-12T03:22:10;12.60;99.90
16823;DHT22;8528;49.976;11.858;2023-08-12T03:24:36;12.60;99.90
16823;DHT22;8528;49.976;11.858;2023-08-12T03:27:04;12.60;99.90
16823;DHT22;8528;49.976;11.858;2023-08-12T03:29:31;12.50;99.90
16823;DHT22;8528;49.976;11.858;2023-08-12T03:31:58;12.60;99.90
16823;DHT22;8528;49.976;11.858;2023-08-12T03:34:31;12.60;99.90
16823;DHT22;8528;49.976;11.858;2023-08-12T03:36:57;12.60;99.90
16823;DHT22;8528;49.976;11.858;2023-08-12T03:39:25;12.50;99.90
16823;DHT22;8528;49.976;11.858;2023-08-12T03:41:51;12.50;99.90
16823;DHT22;8528;49.976;11.858;2023-08-12T03:44:19;12.50;99.90
16823;DHT22;8528;49.976;11.858;2023-08-12T03:46:46;12.50;99.90
16823;DHT22;8528;49.976;11.858;2023-08-12T03:49:13;12.50;99.90
16823;DHT22;8528;49.976;11.858;2023-08-12T03:51:40;12.40;99.90
16823;DHT22;8528;49.976;11.858;2023-08-12T03:54:07;12.40;99.90
16823;DHT22;8528;49.976;11.858;2023-08-12T03:56:34;12.40;99.90
16823;DHT22;8528;49.976;11.858;2023-08-12T03:59:01;12.40;99.90
16823;DHT22;8528;49.976;11.858;2023-08-12T04:01:28;12.40;99.90
16823;DHT22;8528;49.976;11.858;2023-08-12T04:03:55;12.40;99.90
16823;DHT22;8528;49.976;11.858;2023-08-12T04:06:22;12.40;99.90
16823;DHT22;8528;49.976;11.858;2023-08-12T04:08:49;12.40;99.90
16823;DHT22;8528;49.976;11.858;2023-08-12T04:11:16;12.40;99.90
16823;DHT22;8528;49.976;11.858;2023-08-12T04:13:43;12.50;99.90
16823;DHT22;8528;49.976;11.858;2023-08-12T04:16:10;12.50;99.90
16823;DHT22;8528;49.976;11.858;2023-08-12T04:18:37;12.50;99.90
16823;DHT22;8528;49.976;11.858;2023-08-12T04:21:03;12.60;99.90
16823;DHT22;8528;49.976;11.858;2023-08-12T04:23:31;12.60;99.90
16823;DHT22;8528;49.976;11.858;2023-08-12T04:25:58;12.70;99.90
16823;DHT22;8528;49.976;11.858;2023-08-12T04:28:25;12.80;99.90
16823;DHT22;8528;49.976;11.858;2023-08-12T04:30:52;13.00;99.90
16823;DHT22;8528;49.976;11.858;2023-08-12T04:33:19;13.10;99.90
16823;DHT22;8528;49.976;11.858;2023-08-12T04:35:47;13.30;99.90
16823;DHT22;8528;49.976;11.858;2023-08-12T04:38:14;13.40;99.90
16823;DHT22;8528;49.976;11.858;2023-08-12T04:40:42;13.60;99.90
16823;DHT22;8528;49.976;11.858;2023-08-12T04:43:09;13.90;99.90
16823;DHT22;8528;49.976;11.858;2023-08-12T04:45:37;14.30;99.90
16823;DHT22;8528;49.976;11.858;2023-08-12T04:48:05;14.70;99.90
16823;DHT22;8528;49.976;11.858;2023-08-12T04:50:32;15.20;99.90
16823;DHT22;8528;49.976;11.858;2023-08-12T04:53:01;15.80;99.90
16823;DHT22;8528;49.976;11.858;2023-08-12T04:55:28;16.30;99.90
16823;DHT22;8528;49.976;11.858;2023-08-12T04:57:56;17.00;99.90
16823;DHT22;8528;49.976;11.858;2023-08-12T05:00:23;17.50;99.90
16823;DHT22;8528;49.976;11.858;2023-08-12T05:02:52;18.20;99.90
16823;DHT22;8528;49.976;11.858;2023-08-12T05:05:18;18.80;99.90
16823;DHT22;8528;49.976;11.858;2023-08-12T05:07:46;19.30;99.90
16823;DHT22;8528;49.976;11.858;2023-08-12T05:10:16;19.80;99.90
16823;DHT22;8528;49.976;11.858;2023-08-12T05:12:43;20.40;99.90
16823;DHT22;8528;49.976;11.858;2023-08-12T05:15:11;20.90;99.90
16823;DHT22;8528;49.976;11.858;2023-08-12T05:17:38;21.50;99.90
16823;DHT22;8528;49.976;11.858;2023-08-12T05:20:05;22.00;99.90
16823;DHT22;8528;49.976;11.858;2023-08-12T05:22:32;22.30;99.90
16823;DHT22;8528;49.976;11.858;2023-08-12T05:24:59;22.60;99.90
16823;DHT22;8528;49.976;11.858;2023-08-12T05:27:26;23.10;99.90
16823;DHT22;8528;49.976;11.858;2023-08-12T05:29:53;23.60;99.90
16823;DHT22;8528;49.976;11.858;2023-08-12T05:32:20;24.20;99.90
16823;DHT22;8528;49.976;11.858;2023-08-12T05:34:51;24.50;99.90
16823;DHT22;8528;49.976;11.858;2023-08-12T05:37:18;25.00;99.90
16823;DHT22;8528;49.976;11.858;2023-08-12T05:39:45;25.30;99.90
16823;DHT22;8528;49.976;11.858;2023-08-12T05:42:12;25.80;99.90
16823;DHT22;8528;49.976;11.858;2023-08-12T05:44:41;26.20;99.70
16823;DHT22;8528;49.976;11.858;2023-08-12T05:47:08;26.60;98.00
16823;DHT22;8528;49.976;11.858;2023-08-12T05:49:36;27.10;96.20
16823;DHT22;8528;49.976;11.858;2023-08-12T05:52:03;27.70;95.10
16823;DHT22;8528;49.976;11.858;2023-08-12T05:54:30;27.90;94.90
16823;DHT22;8528;49.976;11.858;2023-08-12T05:56:58;27.90;94.00
16823;DHT22;8528;49.976;11.858;2023-08-12T05:59:25;28.10;94.20
16823;DHT22;8528;49.976;11.858;2023-08-12T06:01:53;28.50;91.70
16823;DHT22;8528;49.976;11.858;2023-08-12T06:04:20;28.90;91.50
16823;DHT22;8528;49.976;11.858;2023-08-12T06:06:47;29.40;90.60
16823;DHT22;8528;49.976;11.858;2023-08-12T06:09:15;29.70;89.10
16823;DHT22;8528;49.976;11.858;2023-08-12T06:11:41;29.80;86.40
16823;DHT22;8528;49.976;11.858;2023-08-12T06:14:09;29.90;83.40
16823;DHT22;8528;49.976;11.858;2023-08-12T06:16:36;30.20;79.00
16823;DHT22;8528;49.976;11.858;2023-08-12T06:19:02;29.60;77.40
16823;DHT22;8528;49.976;11.858;2023-08-12T06:21:30;28.50;79.20
16823;DHT22;8528;49.976;11.858;2023-08-12T06:23:57;27.90;81.70
16823;DHT22;8528;49.976;11.858;2023-08-12T06:26:24;27.60;81.20
16823;DHT22;8528;49.976;11.858;2023-08-12T06:28:51;27.20;81.90
16823;DHT22;8528;49.976;11.858;2023-08-12T06:31:20;27.30;82.20
16823;DHT22;8528;49.976;11.858;2023-08-12T06:33:47;27.90;81.40
16823;DHT22;8528;49.976;11.858;2023-08-12T06:36:14;28.30;80.00
16823;DHT22;8528;49.976;11.858;2023-08-12T06:38:41;28.40;79.80
16823;DHT22;8528;49.976;11.858;2023-08-12T06:41:08;29.10;78.00
16823;DHT22;8528;49.976;11.858;2023-08-12T06:43:36;29.90;73.10
16823;DHT22;8528;49.976;11.858;2023-08-12T06:46:02;30.60;72.10
16823;DHT22;8528;49.976;11.858;2023-08-12T06:48:29;31.30;67.80
16823;DHT22;8528;49.976;11.858;2023-08-12T06:50:56;31.50;65.80
16823;DHT22;8528;49.976;11.858;2023-08-12T06:53:25;30.90;67.90
16823;DHT22;8528;49.976;11.858;2023-08-12T06:55:52;29.50;68.00
16823;DHT22;8528;49.976;11.858;2023-08-12T06:58:19;29.10;69.30
16823;DHT22;8528;49.976;11.858;2023-08-12T07:00:46;29.50;69.00
16823;DHT22;8528;49.976;11.858;2023-08-12T07:03:12;29.50;66.80
16823;DHT22;8528;49.976;11.858;2023-08-12T07:05:40;29.10;66.40
16823;DHT22;8528;49.976;11.858;2023-08-12T07:08:07;28.90;66.20
16823;DHT22;8528;49.976;11.858;2023-08-12T07:10:33;28.10;69.10
16823;DHT22;8528;49.976;11.858;2023-08-12T07:13:01;27.60;70.00
16823;DHT22;8528;49.976;11.858;2023-08-12T07:15:28;27.20;72.20
16823;DHT22;8528;49.976;11.858;2023-08-12T07:17:55;26.70;74.30
16823;DHT22;8528;49.976;11.858;2023-08-12T07:20:22;26.30;77.70
16823;DHT22;8528;49.976;11.858;2023-08-12T07:22:49;26.20;78.60
16823;DHT22;8528;49.976;11.858;2023-08-12T07:25:19;25.80;77.80
16823;DHT22;8528;49.976;11.858;2023-08-12T07:27:46;25.20;81.80
16823;DHT22;8528;49.976;11.858;2023-08-12T07:30:13;24.50;83.00
16823;DHT22;8528;49.976;11.858;2023-08-12T07:32:40;24.30;83.70
16823;DHT22;8528;49.976;11.858;2023-08-12T07:35:07;23.90;86.50
16823;DHT22;8528;49.976;11.858;2023-08-12T07:37:34;24.00;88.40
16823;DHT22;8528;49.976;11.858;2023-08-12T07:40:02;24.10;89.90
16823;DHT22;8528;49.976;11.858;2023-08-12T07:42:29;24.30;89.20
16823;DHT22;8528;49.976;11.858;2023-08-12T07:44:56;24.30;90.00
16823;DHT22;8528;49.976;11.858;2023-08-12T07:47:23;24.30;88.70
16823;DHT22;8528;49.976;11.858;2023-08-12T07:49:50;24.20;89.40
16823;DHT22;8528;49.976;11.858;2023-08-12T07:52:17;23.80;90.30
16823;DHT22;8528;49.976;11.858;2023-08-12T07:54:44;23.50;91.30
16823;DHT22;8528;49.976;11.858;2023-08-12T07:57:11;23.20;91.50
16823;DHT22;8528;49.976;11.858;2023-08-12T07:59:38;23.10;92.60
16823;DHT22;8528;49.976;11.858;2023-08-12T08:02:05;23.00;93.40
16823;DHT22;8528;49.976;11.858;2023-08-12T08:04:31;22.90;92.40
16823;DHT22;8528;49.976;11.858;2023-08-12T08:06:59;22.80;92.80
16823;DHT22;8528;49.976;11.858;2023-08-12T08:09:26;22.90;93.50
16823;DHT22;8528;49.976;11.858;2023-08-12T08:11:53;22.80;94.20
16823;DHT22;8528;49.976;11.858;2023-08-12T08:14:34;22.90;94.60
16823;DHT22;8528;49.976;11.858;2023-08-12T08:17:00;23.00;94.60
16823;DHT22;8528;49.976;11.858;2023-08-12T08:19:28;23.00;94.20
16823;DHT22;8528;49.976;11.858;2023-08-12T08:21:57;22.90;93.90
16823;DHT22;8528;49.976;11.858;2023-08-12T08:24:23;22.90;95.00
16823;DHT22;8528;49.976;11.858;2023-08-12T08:26:50;22.90;95.50
16823;DHT22;8528;49.976;11.858;2023-08-12T08:29:17;23.00;95.40
16823;DHT22;8528;49.976;11.858;2023-08-12T08:31:44;23.00;97.10
16823;DHT22;8528;49.976;11.858;2023-08-12T08:34:11;23.10;97.80
16823;DHT22;8528;49.976;11.858;2023-08-12T08:36:38;22.90;96.20
16823;DHT22;8528;49.976;11.858;2023-08-12T08:39:05;22.80;97.70
16823;DHT22;8528;49.976;11.858;2023-08-12T08:41:38;22.70;97.60
16823;DHT22;8528;49.976;11.858;2023-08-12T08:44:07;22.50;98.40
16823;DHT22;8528;49.976;11.858;2023-08-12T08:46:35;22.40;98.70
16823;DHT22;8528;49.976;11.858;2023-08-12T08:49:02;22.50;98.30
16823;DHT22;8528;49.976;11.858;2023-08-12T08:51:31;22.60;98.30
16823;DHT22;8528;49.976;11.858;2023-08-12T08:54:04;22.70;97.90
16823;DHT22;8528;49.976;11.858;2023-08-12T08:56:32;22.70;98.30
16823;DHT22;8528;49.976;11.858;2023-08-12T08:59:13;22.80;97.40
16823;DHT22;8528;49.976;11.858;2023-08-12T09:01:40;23.00;97.10
16823;DHT22;8528;49.976;11.858;2023-08-12T09:04:08;23.20;96.90
16823;DHT22;8528;49.976;11.858;2023-08-12T09:06:36;23.30;96.50
16823;DHT22;8528;49.976;11.858;2023-08-12T09:09:07;23.30;96.50
16823;DHT22;8528;49.976;11.858;2023-08-12T09:11:35;23.40;95.70
16823;DHT22;8528;49.976;11.858;2023-08-12T09:14:05;23.50;96.10
16823;DHT22;8528;49.976;11.858;2023-08-12T09:16:32;23.70;96.20
16823;DHT22;8528;49.976;11.858;2023-08-12T09:19:00;23.80;95.70
16823;DHT22;8528;49.976;11.858;2023-08-12T09:21:27;24.00;95.40
16823;DHT22;8528;49.976;11.858;2023-08-12T09:23:55;24.20;95.00
16823;DHT22;8528;49.976;11.858;2023-08-12T09:26:21;24.80;94.50
16823;DHT22;8528;49.976;11.858;2023-08-12T09:28:48;24.80;93.70
16823;DHT22;8528;49.976;11.858;2023-08-12T09:31:29;25.10;93.10
16823;DHT22;8528;49.976;11.858;2023-08-12T09:34:04;25.30;92.30
16823;DHT22;8528;49.976;11.858;2023-08-12T09:36:31;25.40;92.10
16823;DHT22;8528;49.976;11.858;2023-08-12T09:38:58;25.20;91.50
16823;DHT22;8528;49.976;11.858;2023-08-12T09:41:26;25.60;92.00
16823;DHT22;8528;49.976;11.858;2023-08-12T09:43:55;26.20;90.50
16823;DHT22;8528;49.976;11.858;2023-08-12T09:46:23;26.90;90.00
16823;DHT22;8528;49.976;11.858;2023-08-12T09:48:51;28.20;81.30
16823;DHT22;8528;49.976;11.858;2023-08-12T09:51:21;29.00;77.30
16823;DHT22;8528;49.976;11.858;2023-08-12T09:53:49;29.50;74.20
16823;DHT22;8528;49.976;11.858;2023-08-12T09:56:19;29.70;73.40
16823;DHT22;8528;49.976;11.858;2023-08-12T09:58:48;29.50;71.70
16823;DHT22;8528;49.976;11.858;2023-08-12T10:01:19;29.60;71.90
16823;DHT22;8528;49.976;11.858;2023-08-12T10:03:50;29.00;71.90
16823;DHT22;8528;49.976;11.858;2023-08-12T10:06:18;28.90;72.00
16823;DHT22;8528;49.976;11.858;2023-08-12T10:08:46;28.80;73.10
16823;DHT22;8528;49.976;11.858;2023-08-12T10:11:14;28.20;74.30
16823;DHT22;8528;49.976;11.858;2023-08-12T10:13:42;27.80;75.00
16823;DHT22;8528;49.976;11.858;2023-08-12T10:16:10;27.40;77.00
16823;DHT22;8528;49.976;11.858;2023-08-12T10:18:38;27.40;76.90
16823;DHT22;8528;49.976;11.858;2023-08-12T10:21:09;27.50;75.70
16823;DHT22;8528;49.976;11.858;2023-08-12T10:23:36;27.60;77.00
16823;DHT22;8528;49.976;11.858;2023-08-12T10:26:05;27.70;75.80
16823;DHT22;8528;49.976;11.858;2023-08-12T10:28:34;27.60;76.10
16823;DHT22;8528;49.976;11.858;2023-08-12T10:31:11;28.10;75.10
16823;DHT22;8528;49.976;11.858;2023-08-12T10:33:39;29.10;73.70
16823;DHT22;8528;49.976;11.858;2023-08-12T10:36:07;30.50;70.20
16823;DHT22;8528;49.976;11.858;2023-08-12T10:38:35;31.50;65.80
16823;DHT22;8528;49.976;11.858;2023-08-12T10:41:22;34.20;59.30
16823;DHT22;8528;49.976;11.858;2023-08-12T10:46:32;37.70;47.90
16823;DHT22;8528;49.976;11.858;2023-08-12T10:49:07;37.60;47.10
16823;DHT22;8528;49.976;11.858;2023-08-12T10:51:46;36.60;47.80
16823;DHT22;8528;49.976;11.858;2023-08-12T10:54:27;36.60;46.90
16823;DHT22;8528;49.976;11.858;2023-08-12T10:57:03;36.60;46.40
16823;DHT22;8528;49.976;11.858;2023-08-12T10:59:53;36.00;46.90
16823;DHT22;8528;49.976;11.858;2023-08-12T11:02:33;36.10;46.80
16823;DHT22;8528;49.976;11.858;2023-08-12T11:05:08;36.00;46.80
16823;DHT22;8528;49.976;11.858;2023-08-12T11:07:49;36.20;47.30
16823;DHT22;8528;49.976;11.858;2023-08-12T11:10:30;36.70;46.40
16823;DHT22;8528;49.976;11.858;2023-08-12T11:13:00;36.90;45.50
16823;DHT22;8528;49.976;11.858;2023-08-12T11:20:31;38.30;44.00
16823;DHT22;8528;49.976;11.858;2023-08-12T11:23:00;38.80;42.90
16823;DHT22;8528;49.976;11.858;2023-08-12T11:25:31;38.70;43.40
16823;DHT22;8528;49.976;11.858;2023-08-12T11:27:59;39.60;44.00
16823;DHT22;8528;49.976;11.858;2023-08-12T11:30:26;40.70;40.00
16823;DHT22;8528;49.976;11.858;2023-08-12T11:32:59;40.20;40.10
16823;DHT22;8528;49.976;11.858;2023-08-12T11:35:28;39.50;41.00
16823;DHT22;8528;49.976;11.858;2023-08-12T11:37:57;38.20;42.40
16823;DHT22;8528;49.976;11.858;2023-08-12T11:40:25;38.10;42.90
16823;DHT22;8528;49.976;11.858;2023-08-12T11:42:53;38.10;43.20
16823;DHT22;8528;49.976;11.858;2023-08-12T11:45:23;37.70;42.20
16823;DHT22;8528;49.976;11.858;2023-08-12T11:47:50;37.40;42.90
16823;DHT22;8528;49.976;11.858;2023-08-12T11:50:26;37.20;43.40
16823;DHT22;8528;49.976;11.858;2023-08-12T11:52:55;37.70;42.90
16823;DHT22;8528;49.976;11.858;2023-08-12T11:55:22;38.10;43.40
16823;DHT22;8528;49.976;11.858;2023-08-12T11:57:50;37.60;43.60
16823;DHT22;8528;49.976;11.858;2023-08-12T12:00:19;37.90;41.80
16823;DHT22;8528;49.976;11.858;2023-08-12T12:02:50;37.50;42.40
16823;DHT22;8528;49.976;11.858;2023-08-12T12:05:18;37.30;43.00
16823;DHT22;8528;49.976;11.858;2023-08-12T12:07:50;37.90;42.90
16823;DHT22;8528;49.976;11.858;2023-08-12T12:10:25;38.20;42.30
16823;DHT22;8528;49.976;11.858;2023-08-12T12:12:58;38.20;42.10
16823;DHT22;8528;49.976;11.858;2023-08-12T12:15:25;38.20;42.00
16823;DHT22;8528;49.976;11.858;2023-08-12T12:17:52;38.40;42.40
16823;DHT22;8528;49.976;11.858;2023-08-12T12:20:19;39.00;41.20
16823;DHT22;8528;49.976;11.858;2023-08-12T12:22:47;39.50;41.10
16823;DHT22;8528;49.976;11.858;2023-08-12T12:25:16;39.60;40.70
16823;DHT22;8528;49.976;11.858;2023-08-12T12:27:45;39.60;40.60
16823;DHT22;8528;49.976;11.858;2023-08-12T12:30:14;38.70;41.40
16823;DHT22;8528;49.976;11.858;2023-08-12T12:32:41;38.70;42.10
16823;DHT22;8528;49.976;11.858;2023-08-12T12:35:08;38.90;42.40
16823;DHT22;8528;49.976;11.858;2023-08-12T12:37:36;38.90;42.30
16823;DHT22;8528;49.976;11.858;2023-08-12T12:40:03;39.10;41.70
16823;DHT22;8528;49.976;11.858;2023-08-12T12:42:31;39.00;41.90
16823;DHT22;8528;49.976;11.858;2023-08-12T12:44:58;38.70;42.80
16823;DHT22;8528;49.976;11.858;2023-08-12T12:47:25;39.30;42.60
16823;DHT22;8528;49.976;11.858;2023-08-12T12:49:52;40.00;41.20
16823;DHT22;8528;49.976;11.858;2023-08-12T12:52:18;39.10;41.60
16823;DHT22;8528;49.976;11.858;2023-08-12T12:54:46;39.10;41.10
16823;DHT22;8528;49.976;11.858;2023-08-12T12:57:12;39.10;42.10
16823;DHT22;8528;49.976;11.858;2023-08-12T12:59:39;39.10;42.10
16823;DHT22;8528;49.976;11.858;2023-08-12T13:02:06;38.50;41.80
16823;DHT22;8528;49.976;11.858;2023-08-12T13:04:33;38.50;41.50
16823;DHT22;8528;49.976;11.858;2023-08-12T13:07:00;38.40;41.80
16823;DHT22;8528;49.976;11.858;2023-08-12T13:09:27;38.60;41.40
16823;DHT22;8528;49.976;11.858;2023-08-12T13:11:54;39.10;41.80
16823;DHT22;8528;49.976;11.858;2023-08-12T13:14:23;38.90;40.80
16823;DHT22;8528;49.976;11.858;2023-08-12T13:16:50;38.40;41.10
16823;DHT22;8528;49.976;11.858;2023-08-12T13:19:17;38.20;42.10
16823;DHT22;8528;49.976;11.858;2023-08-12T13:21:44;37.70;43.20
16823;DHT22;8528;49.976;11.858;2023-08-12T13:24:11;37.10;43.70
16823;DHT22;8528;49.976;11.858;2023-08-12T13:26:38;35.90;45.80
16823;DHT22;8528;49.976;11.858;2023-08-12T13:29:05;34.70;47.10
16823;DHT22;8528;49.976;11.858;2023-08-12T13:31:32;34.70;49.30
16823;DHT22;8528;49.976;11.858;2023-08-12T13:33:58;34.50;49.10
16823;DHT22;8528;49.976;11.858;2023-08-12T13:36:25;34.30;48.10
16823;DHT22;8528;49.976;11.858;2023-08-12T13:38:52;34.00;49.10
16823;DHT22;8528;49.976;11.858;2023-08-12T13:41:19;33.20;50.50
16823;DHT22;8528;49.976;11.858;2023-08-12T13:43:46;32.60;52.10
16823;DHT22;8528;49.976;11.858;2023-08-12T13:46:13;31.80;53.80
16823;DHT22;8528;49.976;11.858;2023-08-12T13:48:40;31.30;55.80
16823;DHT22;8528;49.976;11.858;2023-08-12T13:51:09;30.90;56.60
16823;DHT22;8528;49.976;11.858;2023-08-12T13:53:36;30.80;55.50
16823;DHT22;8528;49.976;11.858;2023-08-12T13:56:03;30.50;56.90
16823;DHT22;8528;49.976;11.858;2023-08-12T13:58:30;30.00;57.60
16823;DHT22;8528;49.976;11.858;2023-08-12T14:00:56;29.70;58.50
16823;DHT22;8528;49.976;11.858;2023-08-12T14:03:24;29.40;59.60
16823;DHT22;8528;49.976;11.858;2023-08-12T14:05:51;29.40;59.70
16823;DHT22;8528;49.976;11.858;2023-08-12T14:08:17;29.10;60.10
16823;DHT22;8528;49.976;11.858;2023-08-12T14:10:46;29.10;61.40
16823;DHT22;8528;49.976;11.858;2023-08-12T14:13:13;29.30;60.90
16823;DHT22;8528;49.976;11.858;2023-08-12T14:15:40;29.50;60.20
16823;DHT22;8528;49.976;11.858;2023-08-12T14:18:07;29.60;60.40
16823;DHT22;8528;49.976;11.858;2023-08-12T14:20:35;29.70;61.50
16823;DHT22;8528;49.976;11.858;2023-08-12T14:23:01;29.50;59.40
16823;DHT22;8528;49.976;11.858;2023-08-12T14:25:28;29.10;60.60
16823;DHT22;8528;49.976;11.858;2023-08-12T14:27:56;28.80;62.00
16823;DHT22;8528;49.976;11.858;2023-08-12T14:30:26;28.60;63.10
16823;DHT22;8528;49.976;11.858;2023-08-12T14:32:53;27.80;68.00
16823;DHT22;8528;49.976;11.858;2023-08-12T14:35:20;26.60;72.00
16823;DHT22;8528;49.976;11.858;2023-08-12T14:37:47;25.70;76.20
16823;DHT22;8528;49.976;11.858;2023-08-12T14:40:14;25.00;79.50
16823;DHT22;8528;49.976;11.858;2023-08-12T14:42:41;24.50;82.90
16823;DHT22;8528;49.976;11.858;2023-08-12T14:45:08;24.00;86.50
16823;DHT22;8528;49.976;11.858;2023-08-12T14:47:35;23.50;92.60
16823;DHT22;8528;49.976;11.858;2023-08-12T14:50:02;23.00;99.90
16823;DHT22;8528;49.976;11.858;2023-08-12T14:52:30;22.60;99.90
16823;DHT22;8528;49.976;11.858;2023-08-12T14:54:57;22.10;99.90
16823;DHT22;8528;49.976;11.858;2023-08-12T14:57:24;21.70;99.90
16823;DHT22;8528;49.976;11.858;2023-08-12T14:59:51;21.40;99.90
16823;DHT22;8528;49.976;11.858;2023-08-12T15:02:21;21.10;99.90
16823;DHT22;8528;49.976;11.858;2023-08-12T15:04:51;20.90;99.90
16823;DHT22;8528;49.976;11.858;2023-08-12T15:07:19;20.60;99.90
16823;DHT22;8528;49.976;11.858;2023-08-12T15:09:47;20.50;99.90
16823;DHT22;8528;49.976;11.858;2023-08-12T15:12:14;20.40;99.90
16823;DHT22;8528;49.976;11.858;2023-08-12T15:14:40;20.30;99.90
16823;DHT22;8528;49.976;11.858;2023-08-12T15:17:07;20.30;99.90
16823;DHT22;8528;49.976;11.858;2023-08-12T15:19:34;20.30;99.90
16823;DHT22;8528;49.976;11.858;2023-08-12T15:22:01;20.10;99.90
16823;DHT22;8528;49.976;11.858;2023-08-12T15:24:28;20.10;99.90
16823;DHT22;8528;49.976;11.858;2023-08-12T15:26:55;19.90;99.90
16823;DHT22;8528;49.976;11.858;2023-08-12T15:29:21;19.80;99.90
16823;DHT22;8528;49.976;11.858;2023-08-12T15:31:48;19.80;99.90
16823;DHT22;8528;49.976;11.858;2023-08-12T15:34:16;19.70;99.90
16823;DHT22;8528;49.976;11.858;2023-08-12T15:36:43;19.60;99.90
16823;DHT22;8528;49.976;11.858;2023-08-12T15:39:12;19.50;99.90
16823;DHT22;8528;49.976;11.858;2023-08-12T15:41:43;19.50;99.90
16823;DHT22;8528;49.976;11.858;2023-08-12T15:44:15;19.50;99.90
16823;DHT22;8528;49.976;11.858;2023-08-12T15:46:42;19.50;99.90